sensor_id;sensor_type;location;lat;lon;timestamp;pressure;altitude;pressure_sealevel;temperature;humidity
65800;BME280;52544;48.116;11.660;2023-04-08T00:00:05;95690.38;;;4.64;100.00
65800;BME280;52544;48.116;11.660;2023-04-08T00:02:32;95685.88;;;4.66;100.00
65800;BME280;52544;48.116;11.660;2023-04-08T00:04:58;95691.13;;;4.66;100.00
65800;BME280;52544;48.116;11.660;2023-04-08T00:07:23;95684.19;;;4.65;100.00
65800;BME280;52544;48.116;11.660;2023-04-08T00:09:49;95686.19;;;4.76;100.00
65800;BME280;52544;48.116;11.660;2023-04-08T00:14:42;95684.84;;;4.83;100.00
65800;BME280;52544;48.116;11.660;2023-04-08T00:17:07;95695.06;;;4.88;100.00
65800;BME280;52544;48.116;11.660;2023-04-08T00:19:33;95698.91;;;4.96;100.00
65800;BME280;52544;48.116;11.660;2023-04-08T00:21:58;95694.59;;;4.95;100.00
65800;BME280;52544;48.116;11.660;2023-04-08T00:24:24;95699.38;;;5.03;100.00
65800;BME280;52544;48.116;11.660;2023-04-08T00:26:50;95701.53;;;5.11;100.00
65800;BME280;52544;48.116;11.660;2023-04-08T00:29:16;95695.63;;;5.07;100.00
65800;BME280;52544;48.116;11.660;2023-04-08T00:31:41;95704.72;;;5.01;100.00
65800;BME280;52544;48.116;11.660;2023-04-08T00:34:07;95695.53;;;4.94;100.00
65800;BME280;52544;48.116;11.660;2023-04-08T00:36:32;95703.59;;;5.06;100.00
65800;BME280;52544;48.116;11.660;2023-04-08T00:38:58;95701.72;;;4.93;100.00
65800;BME280;52544;48.116;11.660;2023-04-08T00:41:24;95698.53;;;4.88;100.00
65800;BME280;52544;48.116;11.660;2023-04-08T00:43:49;95707.16;;;4.76;100.00
65800;BME280;52544;48.116;11.660;2023-04-08T00:46:14;95696.78;;;4.89;100.00
65800;BME280;52544;48.116;11.660;2023-04-08T00:48:40;95699.00;;;4.81;100.00
65800;BME280;52544;48.116;11.660;2023-04-08T00:51:06;95705.94;;;4.82;100.00
65800;BME280;52544;48.116;11.660;2023-04-08T00:53:32;95705.09;;;4.95;100.00
65800;BME280;52544;48.116;11.660;2023-04-08T00:55:57;95696.19;;;4.98;100.00
65800;BME280;52544;48.116;11.660;2023-04-08T00:58:26;95701.22;;;5.01;100.00
65800;BME280;52544;48.116;11.660;2023-04-08T01:00:59;95700.22;;;5.04;100.00
65800;BME280;52544;48.116;11.660;2023-04-08T01:08:56;95698.91;;;4.96;100.00
65800;BME280;52544;48.116;11.660;2023-04-08T01:11:24;95693.75;;;5.09;100.00
65800;BME280;52544;48.116;11.660;2023-04-08T01:13:53;95697.31;;;5.08;100.00
65800;BME280;52544;48.116;11.660;2023-04-08T01:16:20;95699.84;;;4.95;100.00
65800;BME280;52544;48.116;11.660;2023-04-08T01:18:48;95698.72;;;4.99;100.00
65800;BME280;52544;48.116;11.660;2023-04-08T01:21:15;95703.69;;;5.04;100.00
65800;BME280;52544;48.116;11.660;2023-04-08T01:23:55;95697.47;;;5.05;100.00
65800;BME280;52544;48.116;11.660;2023-04-08T01:26:25;95695.34;;;4.97;100.00
65800;BME280;52544;48.116;11.660;2023-04-08T01:28:52;95695.44;;;4.96;100.00
65800;BME280;52544;48.116;11.660;2023-04-08T01:31:21;95702.94;;;5.02;100.00
65800;BME280;52544;48.116;11.660;2023-04-08T01:33:48;95696.94;;;5.00;100.00
65800;BME280;52544;48.116;11.660;2023-04-08T01:36:16;95688.88;;;5.03;100.00
65800;BME280;52544;48.116;11.660;2023-04-08T01:38:42;95694.31;;;5.00;100.00
65800;BME280;52544;48.116;11.660;2023-04-08T01:41:09;95694.88;;;4.91;100.00
65800;BME280;52544;48.116;11.660;2023-04-08T01:43:35;95686.53;;;4.98;100.00
65800;BME280;52544;48.116;11.660;2023-04-08T01:46:04;95689.44;;;4.94;100.00
65800;BME280;52544;48.116;11.660;2023-04-08T01:48:30;95696.19;;;4.98;100.00
65800;BME280;52544;48.116;11.660;2023-04-08T01:50:57;95695.44;;;4.96;100.00
65800;BME280;52544;48.116;11.660;2023-04-08T01:53:23;95701.81;;;4.92;100.00
65800;BME280;52544;48.116;11.660;2023-04-08T01:55:54;95693.03;;;4.93;100.00
65800;BME280;52544;48.116;11.660;2023-04-08T01:58:22;95701.63;;;4.95;100.00
65800;BME280;52544;48.116;11.660;2023-04-08T02:00:50;95704.53;;;4.90;100.00
65800;BME280;52544;48.116;11.660;2023-04-08T02:03:19;95692.91;;;4.94;100.00
65800;BME280;52544;48.116;11.660;2023-04-08T02:05:46;95701.06;;;4.90;100.00
65800;BME280;52544;48.116;11.660;2023-04-08T02:08:12;95712.84;;;4.83;100.00
65800;BME280;52544;48.116;11.660;2023-04-08T02:10:37;95706.28;;;4.75;100.00
65800;BME280;52544;48.116;11.660;2023-04-08T02:13:03;95706.28;;;4.75;100.00
65800;BME280;52544;48.116;11.660;2023-04-08T02:15:33;95707.78;;;4.80;100.00
65800;BME280;52544;48.116;11.660;2023-04-08T02:18:04;95702.38;;;4.68;100.00
65800;BME280;52544;48.116;11.660;2023-04-08T02:20:37;95703.31;;;4.67;100.00
65800;BME280;52544;48.116;11.660;2023-04-08T02:23:13;95701.69;;;4.50;100.00
65800;BME280;52544;48.116;11.660;2023-04-08T02:25:43;95697.84;;;4.42;100.00
65800;BME280;52544;48.116;11.660;2023-04-08T02:28:10;95703.72;;;4.45;100.00
65800;BME280;52544;48.116;11.660;2023-04-08T02:30:40;95701.25;;;4.28;100.00
65800;BME280;52544;48.116;11.660;2023-04-08T02:33:07;95700.47;;;4.42;100.00
65800;BME280;52544;48.116;11.660;2023-04-08T02:35:33;95706.31;;;4.31;100.00
65800;BME280;52544;48.116;11.660;2023-04-08T02:37:59;95701.75;;;4.35;100.00
65800;BME280;52544;48.116;11.660;2023-04-08T02:40:30;95698.31;;;4.48;100.00
65800;BME280;52544;48.116;11.660;2023-04-08T02:42:56;95692.50;;;4.43;100.00
65800;BME280;52544;48.116;11.660;2023-04-08T02:45:24;95691.66;;;4.43;100.00
65800;BME280;52544;48.116;11.660;2023-04-08T02:47:51;95699.31;;;4.46;100.00
65800;BME280;52544;48.116;11.660;2023-04-08T02:50:17;95692.91;;;4.51;100.00
65800;BME280;52544;48.116;11.660;2023-04-08T02:52:42;95689.34;;;4.53;100.00
65800;BME280;52544;48.116;11.660;2023-04-08T02:55:09;95690.44;;;4.48;100.00
65800;BME280;52544;48.116;11.660;2023-04-08T02:57:36;95689.78;;;4.45;100.00
65800;BME280;52544;48.116;11.660;2023-04-08T03:00:03;95689.59;;;4.48;100.00
65800;BME280;52544;48.116;11.660;2023-04-08T03:02:29;95696.53;;;4.49;100.00
65800;BME280;52544;48.116;11.660;2023-04-08T03:04:54;95698.97;;;4.52;100.00
65800;BME280;52544;48.116;11.660;2023-04-08T03:07:20;95693.16;;;4.47;100.00
65800;BME280;52544;48.116;11.660;2023-04-08T03:09:45;95700.81;;;4.50;100.00
65800;BME280;52544;48.116;11.660;2023-04-08T03:12:11;95705.34;;;4.48;100.00
65800;BME280;52544;48.116;11.660;2023-04-08T03:14:36;95703.28;;;4.53;100.00
65800;BME280;52544;48.116;11.660;2023-04-08T03:17:01;95703.84;;;4.58;100.00
65800;BME280;52544;48.116;11.660;2023-04-08T03:19:27;95703.50;;;4.64;100.00
65800;BME280;52544;48.116;11.660;2023-04-08T03:21:52;95702.94;;;4.73;100.00
65800;BME280;52544;48.116;11.660;2023-04-08T03:24:17;95703.50;;;4.64;100.00
65800;BME280;52544;48.116;11.660;2023-04-08T03:26:43;95711.06;;;4.69;100.00
65800;BME280;52544;48.116;11.660;2023-04-08T03:29:08;95709.19;;;4.71;100.00
65800;BME280;52544;48.116;11.660;2023-04-08T03:31:34;95710.91;;;4.72;100.00
65800;BME280;52544;48.116;11.660;2023-04-08T03:34:00;95713.63;;;4.85;100.00
65800;BME280;52544;48.116;11.660;2023-04-08T03:36:25;95713.97;;;4.79;100.00
65800;BME280;52544;48.116;11.660;2023-04-08T03:38:51;95715.19;;;4.87;100.00
65800;BME280;52544;48.116;11.660;2023-04-08T03:41:16;95713.41;;;4.88;100.00
65800;BME280;52544;48.116;11.660;2023-04-08T03:43:42;95719.72;;;4.85;100.00
65800;BME280;52544;48.116;11.660;2023-04-08T03:46:07;95719.25;;;4.93;100.00
65800;BME280;52544;48.116;11.660;2023-04-08T03:48:32;95719.97;;;4.95;100.00
65800;BME280;52544;48.116;11.660;2023-04-08T03:50:58;95715.69;;;4.94;100.00
65800;BME280;52544;48.116;11.660;2023-04-08T03:53:23;95723.34;;;4.97;100.00
65800;BME280;52544;48.116;11.660;2023-04-08T03:55:49;95729.34;;;4.99;100.00
65800;BME280;52544;48.116;11.660;2023-04-08T03:58:17;95722.50;;;4.96;100.00
65800;BME280;52544;48.116;11.660;2023-04-08T04:00:43;95728.50;;;4.98;100.00
65800;BME280;52544;48.116;11.660;2023-04-08T04:03:08;95724.66;;;4.90;100.00
65800;BME280;52544;48.116;11.660;2023-04-08T04:05:37;95737.97;;;4.87;100.00
65800;BME280;52544;48.116;11.660;2023-04-08T04:08:03;95737.50;;;4.94;100.00
65800;BME280;52544;48.116;11.660;2023-04-08T04:10:28;95734.97;;;4.93;100.00
65800;BME280;52544;48.116;11.660;2023-04-08T04:12:54;95743.59;;;4.95;100.00
65800;BME280;52544;48.116;11.660;2023-04-08T04:15:19;95738.72;;;4.89;100.00
65800;BME280;52544;48.116;11.660;2023-04-08T04:17:47;95744.59;;;4.92;100.00
65800;BME280;52544;48.116;11.660;2023-04-08T04:20:13;95745.00;;;4.86;100.00
65800;BME280;52544;48.116;11.660;2023-04-08T04:22:38;95744.81;;;4.89;100.00
65800;BME280;52544;48.116;11.660;2023-04-08T04:25:04;95752.38;;;4.80;100.00
65800;BME280;52544;48.116;11.660;2023-04-08T04:27:30;95749.22;;;4.89;100.00
65800;BME280;52544;48.116;11.660;2023-04-08T04:29:55;95748.34;;;4.88;100.00
65800;BME280;52544;48.116;11.660;2023-04-08T04:32:21;95752.41;;;4.94;100.00
65800;BME280;52544;48.116;11.660;2023-04-08T04:34:46;95755.97;;;4.93;100.00
65800;BME280;52544;48.116;11.660;2023-04-08T04:37:11;95755.97;;;5.07;100.00
65800;BME280;52544;48.116;11.660;2023-04-08T04:39:37;95753.16;;;5.10;100.00
65800;BME280;52544;48.116;11.660;2023-04-08T04:42:03;95755.69;;;5.12;100.00
65800;BME280;52544;48.116;11.660;2023-04-08T04:44:28;95763.25;;;5.16;100.00
65800;BME280;52544;48.116;11.660;2023-04-08T04:46:54;95757.63;;;5.08;100.00
65800;BME280;52544;48.116;11.660;2023-04-08T04:49:20;95766.84;;;5.15;100.00
65800;BME280;52544;48.116;11.660;2023-04-08T04:51:45;95773.47;;;5.21;100.00
65800;BME280;52544;48.116;11.660;2023-04-08T04:54:11;95766.25;;;5.24;100.00
65800;BME280;52544;48.116;11.660;2023-04-08T04:56:36;95766.09;;;5.28;100.00
65800;BME280;52544;48.116;11.660;2023-04-08T04:59:02;95768.78;;;5.26;100.00
65800;BME280;52544;48.116;11.660;2023-04-08T05:01:29;95769.72;;;5.25;100.00
65800;BME280;52544;48.116;11.660;2023-04-08T05:03:55;95777.50;;;5.26;100.00
65800;BME280;52544;48.116;11.660;2023-04-08T05:06:22;95776.47;;;5.29;100.00
65800;BME280;52544;48.116;11.660;2023-04-08T05:08:47;95778.09;;;5.32;100.00
65800;BME280;52544;48.116;11.660;2023-04-08T05:11:13;95779.38;;;5.39;100.00
65800;BME280;52544;48.116;11.660;2023-04-08T05:13:38;95773.94;;;5.42;100.00
65800;BME280;52544;48.116;11.660;2023-04-08T05:16:04;95777.13;;;5.47;100.00
65800;BME280;52544;48.116;11.660;2023-04-08T05:18:29;95771.88;;;5.47;100.00
65800;BME280;52544;48.116;11.660;2023-04-08T05:20:55;95773.56;;;5.48;100.00
65800;BME280;52544;48.116;11.660;2023-04-08T05:23:20;95776.53;;;5.56;100.00
65800;BME280;52544;48.116;11.660;2023-04-08T05:25:45;95773.00;;;5.57;100.00
65800;BME280;52544;48.116;11.660;2023-04-08T05:28:11;95772.78;;;5.60;100.00
65800;BME280;52544;48.116;11.660;2023-04-08T05:30:36;95779.22;;;5.69;100.00
65800;BME280;52544;48.116;11.660;2023-04-08T05:33:02;95777.09;;;5.75;100.00
65800;BME280;52544;48.116;11.660;2023-04-08T05:35:28;95775.00;;;5.81;100.00
65800;BME280;52544;48.116;11.660;2023-04-08T05:37:53;95778.47;;;5.81;100.00
65800;BME280;52544;48.116;11.660;2023-04-08T05:40:18;95779.53;;;5.79;100.00
65800;BME280;52544;48.116;11.660;2023-04-08T05:42:44;95770.69;;;5.80;100.00
65800;BME280;52544;48.116;11.660;2023-04-08T05:45:09;95772.19;;;5.84;100.00
65800;BME280;52544;48.116;11.660;2023-04-08T05:47:35;95771.16;;;5.86;100.00
65800;BME280;52544;48.116;11.660;2023-04-08T05:50:00;95771.88;;;5.88;100.00
65800;BME280;52544;48.116;11.660;2023-04-08T05:52:26;95768.16;;;5.92;100.00
65800;BME280;52544;48.116;11.660;2023-04-08T05:54:51;95779.31;;;5.96;100.00
65800;BME280;52544;48.116;11.660;2023-04-08T05:57:16;95782.69;;;5.98;100.00
65800;BME280;52544;48.116;11.660;2023-04-08T05:59:42;95781.00;;;5.97;100.00
65800;BME280;52544;48.116;11.660;2023-04-08T06:02:07;95779.13;;;5.99;100.00
65800;BME280;52544;48.116;11.660;2023-04-08T06:04:33;95777.97;;;6.03;100.00
65800;BME280;52544;48.116;11.660;2023-04-08T06:06:58;95786.41;;;6.08;100.00
65800;BME280;52544;48.116;11.660;2023-04-08T06:09:24;95774.78;;;6.12;100.00
65800;BME280;52544;48.116;11.660;2023-04-08T06:11:50;95792.41;;;6.10;100.00
65800;BME280;52544;48.116;11.660;2023-04-08T06:14:15;95790.72;;;6.09;100.00
65800;BME280;52544;48.116;11.660;2023-04-08T06:16:41;95793.50;;;6.20;100.00
65800;BME280;52544;48.116;11.660;2023-04-08T06:19:06;95788.44;;;6.17;100.00
65800;BME280;52544;48.116;11.660;2023-04-08T06:21:32;95792.38;;;6.24;100.00
65800;BME280;52544;48.116;11.660;2023-04-08T06:23:57;95789.75;;;6.24;100.00
65800;BME280;52544;48.116;11.660;2023-04-08T06:26:22;95792.91;;;6.30;100.00
65800;BME280;52544;48.116;11.660;2023-04-08T06:28:48;95790.16;;;6.31;100.00
65800;BME280;52544;48.116;11.660;2023-04-08T06:31:13;95799.00;;;6.30;100.00
65800;BME280;52544;48.116;11.660;2023-04-08T06:33:39;95794.59;;;6.31;100.00
65800;BME280;52544;48.116;11.660;2023-04-08T06:36:05;95799.84;;;6.31;100.00
65800;BME280;52544;48.116;11.660;2023-04-08T06:38:31;95800.78;;;6.30;100.00
65800;BME280;52544;48.116;11.660;2023-04-08T06:41:04;95801.72;;;6.29;100.00
65800;BME280;52544;48.116;11.660;2023-04-08T06:43:30;95806.69;;;6.33;100.00
65800;BME280;52544;48.116;11.660;2023-04-08T06:45:55;95806.59;;;6.35;100.00
65800;BME280;52544;48.116;11.660;2023-04-08T06:48:25;95804.50;;;6.40;100.00
65800;BME280;52544;48.116;11.660;2023-04-08T06:50:57;95811.00;;;6.34;100.00
65800;BME280;52544;48.116;11.660;2023-04-08T06:53:23;95816.28;;;6.34;100.00
65800;BME280;52544;48.116;11.660;2023-04-08T06:55:49;95817.09;;;6.35;100.00
65800;BME280;52544;48.116;11.660;2023-04-08T06:58:14;95820.47;;;6.37;100.00
65800;BME280;52544;48.116;11.660;2023-04-08T07:00:41;95823.84;;;6.39;100.00
65800;BME280;52544;48.116;11.660;2023-04-08T07:03:06;95820.28;;;6.40;100.00
65800;BME280;52544;48.116;11.660;2023-04-08T07:05:31;95828.91;;;6.42;100.00
65800;BME280;52544;48.116;11.660;2023-04-08T07:07:57;95814.63;;;6.46;100.00
65800;BME280;52544;48.116;11.660;2023-04-08T07:10:22;95817.78;;;6.51;100.00
65800;BME280;52544;48.116;11.660;2023-04-08T07:12:47;95811.47;;;6.54;100.00
65800;BME280;52544;48.116;11.660;2023-04-08T07:15:13;95826.88;;;6.60;100.00
65800;BME280;52544;48.116;11.660;2023-04-08T07:17:38;95816.16;;;6.63;100.00
65800;BME280;52544;48.116;11.660;2023-04-08T07:20:05;95824.66;;;6.66;100.00
65800;BME280;52544;48.116;11.660;2023-04-08T07:22:30;95832.34;;;6.69;100.00
65800;BME280;52544;48.116;11.660;2023-04-08T07:24:56;95823.31;;;6.73;100.00
65800;BME280;52544;48.116;11.660;2023-04-08T07:27:21;95824.06;;;6.75;100.00
65800;BME280;52544;48.116;11.660;2023-04-08T07:29:51;95825.84;;;6.75;100.00
65800;BME280;52544;48.116;11.660;2023-04-08T07:32:17;95842.69;;;6.72;100.00
65800;BME280;52544;48.116;11.660;2023-04-08T07:34:43;95835.13;;;6.81;100.00
65800;BME280;52544;48.116;11.660;2023-04-08T07:37:08;95843.28;;;6.63;100.00
65800;BME280;52544;48.116;11.660;2023-04-08T07:39:33;95841.69;;;6.61;100.00
65800;BME280;52544;48.116;11.660;2023-04-08T07:41:59;95843.13;;;6.52;100.00
65800;BME280;52544;48.116;11.660;2023-04-08T07:44:25;95845.88;;;6.50;100.00
65800;BME280;52544;48.116;11.660;2023-04-08T07:46:50;95853.78;;;6.36;95.75
65800;BME280;52544;48.116;11.660;2023-04-08T07:49:16;95857.47;;;6.34;95.10
65800;BME280;52544;48.116;11.660;2023-04-08T07:51:41;95860.41;;;6.29;91.83
65800;BME280;52544;48.116;11.660;2023-04-08T07:54:07;95858.91;;;6.25;91.34
65800;BME280;52544;48.116;11.660;2023-04-08T07:56:32;95856.91;;;6.29;91.82
65800;BME280;52544;48.116;11.660;2023-04-08T07:58:57;95863.53;;;6.21;91.30
65800;BME280;52544;48.116;11.660;2023-04-08T08:01:23;95861.84;;;6.20;90.83
65800;BME280;52544;48.116;11.660;2023-04-08T08:03:51;95864.25;;;6.23;89.53
65800;BME280;52544;48.116;11.660;2023-04-08T08:06:17;95859.53;;;6.29;88.03
65800;BME280;52544;48.116;11.660;2023-04-08T08:08:42;95864.78;;;6.29;89.37
65800;BME280;52544;48.116;11.660;2023-04-08T08:11:08;95867.78;;;6.37;89.02
65800;BME280;52544;48.116;11.660;2023-04-08T08:13:33;95865.31;;;6.48;85.00
65800;BME280;52544;48.116;11.660;2023-04-08T08:15:59;95871.72;;;6.44;85.45
65800;BME280;52544;48.116;11.660;2023-04-08T08:18:24;95869.28;;;6.41;87.42
65800;BME280;52544;48.116;11.660;2023-04-08T08:20:50;95875.41;;;6.27;85.92
65800;BME280;52544;48.116;11.660;2023-04-08T08:23:15;95874.22;;;6.18;85.90
65800;BME280;52544;48.116;11.660;2023-04-08T08:25:41;95870.78;;;6.04;87.62
65800;BME280;52544;48.116;11.660;2023-04-08T08:28:06;95869.38;;;6.12;88.06
65800;BME280;52544;48.116;11.660;2023-04-08T08:30:32;95875.53;;;6.11;88.35
65800;BME280;52544;48.116;11.660;2023-04-08T08:32:57;95876.66;;;6.07;91.49
65800;BME280;52544;48.116;11.660;2023-04-08T08:35:24;95878.56;;;6.05;89.04
65800;BME280;52544;48.116;11.660;2023-04-08T08:37:49;95880.25;;;6.06;85.77
65800;BME280;52544;48.116;11.660;2023-04-08T08:40:15;95882.69;;;6.09;85.05
65800;BME280;52544;48.116;11.660;2023-04-08T08:42:41;95886.75;;;6.00;86.00
65800;BME280;52544;48.116;11.660;2023-04-08T08:45:07;95880.22;;;5.77;88.29
65800;BME280;52544;48.116;11.660;2023-04-08T08:47:32;95884.75;;;5.75;88.10
65800;BME280;52544;48.116;11.660;2023-04-08T08:49:58;95884.38;;;5.67;90.88
65800;BME280;52544;48.116;11.660;2023-04-08T08:52:23;95894.78;;;5.83;92.26
65800;BME280;52544;48.116;11.660;2023-04-08T08:54:57;95891.88;;;5.88;88.50
65800;BME280;52544;48.116;11.660;2023-04-08T08:57:22;95892.16;;;5.83;88.74
65800;BME280;52544;48.116;11.660;2023-04-08T08:59:48;95889.44;;;5.85;90.95
65800;BME280;52544;48.116;11.660;2023-04-08T09:02:28;95891.69;;;5.91;91.55
65800;BME280;52544;48.116;11.660;2023-04-08T09:05:01;95889.06;;;5.91;94.05
65800;BME280;52544;48.116;11.660;2023-04-08T09:07:28;95893.41;;;5.92;94.41
65800;BME280;52544;48.116;11.660;2023-04-08T09:09:55;95889.19;;;6.04;93.90
65800;BME280;52544;48.116;11.660;2023-04-08T09:12:22;95899.41;;;5.94;93.07
65800;BME280;52544;48.116;11.660;2023-04-08T09:14:48;95899.00;;;5.86;95.01
65800;BME280;52544;48.116;11.660;2023-04-08T09:17:14;95897.13;;;5.88;94.12
65800;BME280;52544;48.116;11.660;2023-04-08T09:25:30;95903.81;;;5.79;95.84
65800;BME280;52544;48.116;11.660;2023-04-08T09:27:59;95905.41;;;5.96;96.49
65800;BME280;52544;48.116;11.660;2023-04-08T09:30:26;95902.41;;;6.02;91.77
65800;BME280;52544;48.116;11.660;2023-04-08T09:32:54;95900.50;;;5.90;90.63
65800;BME280;52544;48.116;11.660;2023-04-08T09:35:20;95909.16;;;5.92;91.96
65800;BME280;52544;48.116;11.660;2023-04-08T09:37:46;95909.06;;;5.79;92.96
65800;BME280;52544;48.116;11.660;2023-04-08T09:40:13;95906.13;;;5.84;91.63
65800;BME280;52544;48.116;11.660;2023-04-08T09:42:47;95911.56;;;5.81;89.52
65800;BME280;52544;48.116;11.660;2023-04-08T09:45:16;95912.50;;;5.80;90.42
65800;BME280;52544;48.116;11.660;2023-04-08T09:47:55;95909.31;;;5.60;91.61
65800;BME280;52544;48.116;11.660;2023-04-08T09:50:26;95917.56;;;5.68;90.09
65800;BME280;52544;48.116;11.660;2023-04-08T09:52:58;95905.22;;;5.70;87.79
65800;BME280;52544;48.116;11.660;2023-04-08T09:55:26;95903.31;;;5.72;88.68
65800;BME280;52544;48.116;11.660;2023-04-08T09:57:58;95909.88;;;5.80;89.57
65800;BME280;52544;48.116;11.660;2023-04-08T10:00:29;95913.34;;;5.80;91.59
65800;BME280;52544;48.116;11.660;2023-04-08T10:03:10;95908.00;;;5.82;87.41
65800;BME280;52544;48.116;11.660;2023-04-08T10:05:39;95911.22;;;5.87;87.40
65800;BME280;52544;48.116;11.660;2023-04-08T10:08:05;95918.63;;;5.94;85.57
65800;BME280;52544;48.116;11.660;2023-04-08T10:10:33;95911.22;;;6.01;85.96
65800;BME280;52544;48.116;11.660;2023-04-08T10:12:59;95917.22;;;6.03;84.89
65800;BME280;52544;48.116;11.660;2023-04-08T10:15:29;95916.84;;;6.09;84.92
65800;BME280;52544;48.116;11.660;2023-04-08T10:20:46;95912.31;;;6.25;87.72
65800;BME280;52544;48.116;11.660;2023-04-08T10:23:13;95908.53;;;6.44;85.78
65800;BME280;52544;48.116;11.660;2023-04-08T10:38:23;95909.13;;;6.89;81.25
65800;BME280;52544;48.116;11.660;2023-04-08T10:40:49;95904.19;;;6.84;80.90
65800;BME280;52544;48.116;11.660;2023-04-08T10:43:15;95906.22;;;6.79;81.25
65800;BME280;52544;48.116;11.660;2023-04-08T10:45:42;95898.75;;;6.73;80.94
65800;BME280;52544;48.116;11.660;2023-04-08T10:48:23;95900.84;;;6.68;82.67
65800;BME280;52544;48.116;11.660;2023-04-08T10:50:59;95899.72;;;6.72;82.41
65800;BME280;52544;48.116;11.660;2023-04-08T10:53:36;95901.56;;;6.70;84.10
65800;BME280;52544;48.116;11.660;2023-04-08T10:56:12;95902.41;;;6.70;83.04
65800;BME280;52544;48.116;11.660;2023-04-08T10:58:52;95901.50;;;6.71;83.63
65800;BME280;52544;48.116;11.660;2023-04-08T11:01:18;95899.06;;;6.68;82.86
65800;BME280;52544;48.116;11.660;2023-04-08T11:03:44;95903.03;;;6.61;85.10
65800;BME280;52544;48.116;11.660;2023-04-08T11:06:09;95906.50;;;6.62;85.08
65800;BME280;52544;48.116;11.660;2023-04-08T11:08:36;95905.47;;;6.64;84.14
65800;BME280;52544;48.116;11.660;2023-04-08T11:11:03;95900.03;;;6.53;85.02
65800;BME280;52544;48.116;11.660;2023-04-08T11:13:34;95905.41;;;6.51;86.29
65800;BME280;52544;48.116;11.660;2023-04-08T11:16:02;95907.38;;;6.48;87.35
65800;BME280;52544;48.116;11.660;2023-04-08T11:18:29;95902.13;;;6.48;87.67
65800;BME280;52544;48.116;11.660;2023-04-08T11:20:56;95907.22;;;6.37;89.63
65800;BME280;52544;48.116;11.660;2023-04-08T11:23:23;95901.41;;;6.32;88.53
65800;BME280;52544;48.116;11.660;2023-04-08T11:25:49;95912.09;;;6.29;89.98
65800;BME280;52544;48.116;11.660;2023-04-08T11:28:15;95913.28;;;6.24;92.00
65800;BME280;52544;48.116;11.660;2023-04-08T11:30:41;95910.66;;;6.24;92.35
65800;BME280;52544;48.116;11.660;2023-04-08T11:33:07;95915.25;;;6.21;92.84
65800;BME280;52544;48.116;11.660;2023-04-08T11:35:32;95908.78;;;6.12;94.89
65800;BME280;52544;48.116;11.660;2023-04-08T11:37:58;95915.06;;;6.10;95.11
65800;BME280;52544;48.116;11.660;2023-04-08T11:40:23;95922.09;;;6.09;95.66
65800;BME280;52544;48.116;11.660;2023-04-08T11:42:50;95913.09;;;6.13;96.84
65800;BME280;52544;48.116;11.660;2023-04-08T11:45:19;95912.69;;;6.19;96.34
65800;BME280;52544;48.116;11.660;2023-04-08T11:47:46;95911.88;;;6.05;95.77
65800;BME280;52544;48.116;11.660;2023-04-08T11:50:17;95918.94;;;6.04;96.28
65800;BME280;52544;48.116;11.660;2023-04-08T11:52:48;95918.94;;;6.04;96.96
65800;BME280;52544;48.116;11.660;2023-04-08T11:55:28;95912.34;;;5.97;97.76
65800;BME280;52544;48.116;11.660;2023-04-08T11:57:54;95925.19;;;6.01;98.59
65800;BME280;52544;48.116;11.660;2023-04-08T12:00:21;95916.25;;;5.90;97.38
65800;BME280;52544;48.116;11.660;2023-04-08T12:02:47;95922.84;;;5.97;96.26
65800;BME280;52544;48.116;11.660;2023-04-08T12:05:13;95931.38;;;5.86;96.58
65800;BME280;52544;48.116;11.660;2023-04-08T12:07:40;95926.50;;;5.80;95.62
65800;BME280;52544;48.116;11.660;2023-04-08T12:10:07;95923.75;;;5.82;96.02
65800;BME280;52544;48.116;11.660;2023-04-08T12:12:32;95927.81;;;5.87;94.21
65800;BME280;52544;48.116;11.660;2023-04-08T12:14:58;95925.78;;;5.92;93.31
65800;BME280;52544;48.116;11.660;2023-04-08T12:17:23;95933.53;;;5.94;93.59
65800;BME280;52544;48.116;11.660;2023-04-08T12:19:48;95923.69;;;5.97;92.51
65800;BME280;52544;48.116;11.660;2023-04-08T12:22:14;95934.88;;;6.01;92.83
65800;BME280;52544;48.116;11.660;2023-04-08T12:24:40;95938.72;;;5.95;93.16
65800;BME280;52544;48.116;11.660;2023-04-08T12:27:06;95933.53;;;5.94;93.13
65800;BME280;52544;48.116;11.660;2023-04-08T12:29:31;95941.53;;;5.92;93.13
65800;BME280;52544;48.116;11.660;2023-04-08T12:31:57;95936.34;;;5.91;93.10
65800;BME280;52544;48.116;11.660;2023-04-08T12:34:23;95936.44;;;5.89;92.86
65800;BME280;52544;48.116;11.660;2023-04-08T12:36:48;95950.69;;;5.85;93.78
65800;BME280;52544;48.116;11.660;2023-04-08T12:39:14;95942.63;;;5.74;93.47
65800;BME280;52544;48.116;11.660;2023-04-08T12:41:40;95952.09;;;5.76;94.49
65800;BME280;52544;48.116;11.660;2023-04-08T12:44:05;95943.81;;;5.68;96.23
65800;BME280;52544;48.116;11.660;2023-04-08T12:46:31;95955.00;;;5.72;97.39
65800;BME280;52544;48.116;11.660;2023-04-08T12:48:56;95951.25;;;5.76;96.70
65800;BME280;52544;48.116;11.660;2023-04-08T12:51:22;95945.81;;;5.79;95.70
65800;BME280;52544;48.116;11.660;2023-04-08T12:53:47;95947.03;;;5.73;95.76
65800;BME280;52544;48.116;11.660;2023-04-08T12:56:13;95954.72;;;5.62;95.90
65800;BME280;52544;48.116;11.660;2023-04-08T12:58:38;95948.53;;;5.63;95.88
65800;BME280;52544;48.116;11.660;2023-04-08T13:01:03;95953.03;;;5.61;95.86
65800;BME280;52544;48.116;11.660;2023-04-08T13:03:30;95952.94;;;5.63;96.05
65800;BME280;52544;48.116;11.660;2023-04-08T13:05:56;95951.69;;;5.54;96.62
65800;BME280;52544;48.116;11.660;2023-04-08T13:08:23;95957.22;;;5.49;96.34
65800;BME280;52544;48.116;11.660;2023-04-08T13:10:49;95953.25;;;5.42;97.78
65800;BME280;52544;48.116;11.660;2023-04-08T13:13:14;95951.59;;;5.41;98.53
65800;BME280;52544;48.116;11.660;2023-04-08T13:15:40;95957.09;;;5.37;99.49
65800;BME280;52544;48.116;11.660;2023-04-08T13:18:05;95955.69;;;5.31;99.38
65800;BME280;52544;48.116;11.660;2023-04-08T13:20:30;95959.34;;;5.29;100.00